sensor_id;sensor_type;location;lat;lon;timestamp;temperature;humidity
27647;DHT22;42229;51.230;6.240;2023-07-31T00:01:50;18.10;99.90
27647;DHT22;42229;51.230;6.240;2023-07-31T00:04:17;18.10;99.90
27647;DHT22;42229;51.230;6.240;2023-07-31T00:06:43;18.10;99.90
27647;DHT22;42229;51.230;6.240;2023-07-31T00:09:09;18.20;99.90
27647;DHT22;42229;51.230;6.240;2023-07-31T00:11:36;18.20;99.90
27647;DHT22;42229;51.230;6.240;2023-07-31T00:14:02;18.20;99.90
27647;DHT22;42229;51.230;6.240;2023-07-31T00:16:28;18.20;99.90
27647;DHT22;42229;51.230;6.240;2023-07-31T00:18:54;18.30;99.90
27647;DHT22;42229;51.230;6.240;2023-07-31T00:21:21;18.20;99.90
27647;DHT22;42229;51.230;6.240;2023-07-31T00:23:47;18.20;99.90
27647;DHT22;42229;51.230;6.240;2023-07-31T00:26:13;18.30;99.90
27647;DHT22;42229;51.230;6.240;2023-07-31T00:28:39;18.30;99.90
27647;DHT22;42229;51.230;6.240;2023-07-31T00:31:05;18.30;99.90
27647;DHT22;42229;51.230;6.240;2023-07-31T00:33:34;18.30;99.90
27647;DHT22;42229;51.230;6.240;2023-07-31T00:36:03;18.30;99.90
27647;DHT22;42229;51.230;6.240;2023-07-31T00:38:29;18.30;99.90
27647;DHT22;42229;51.230;6.240;2023-07-31T00:40:55;18.30;99.90
27647;DHT22;42229;51.230;6.240;2023-07-31T00:43:21;18.30;99.90
27647;DHT22;42229;51.230;6.240;2023-07-31T00:45:48;18.30;99.90
27647;DHT22;42229;51.230;6.240;2023-07-31T00:48:14;18.30;99.90
27647;DHT22;42229;51.230;6.240;2023-07-31T00:50:41;18.30;99.90
27647;DHT22;42229;51.230;6.240;2023-07-31T00:53:07;18.30;99.90
27647;DHT22;42229;51.230;6.240;2023-07-31T00:55:33;18.40;99.90
27647;DHT22;42229;51.230;6.240;2023-07-31T00:58:00;18.40;99.90
27647;DHT22;42229;51.230;6.240;2023-07-31T01:00:26;18.40;99.90
27647;DHT22;42229;51.230;6.240;2023-07-31T01:02:52;18.40;99.90
27647;DHT22;42229;51.230;6.240;2023-07-31T01:05:19;18.40;99.90
27647;DHT22;42229;51.230;6.240;2023-07-31T01:10:58;18.40;99.90
27647;DHT22;42229;51.230;6.240;2023-07-31T01:13:28;18.40;99.90
27647;DHT22;42229;51.230;6.240;2023-07-31T01:15:55;18.40;99.90
27647;DHT22;42229;51.230;6.240;2023-07-31T01:18:21;18.40;99.90
27647;DHT22;42229;51.230;6.240;2023-07-31T01:20:50;18.40;99.90
27647;DHT22;42229;51.230;6.240;2023-07-31T01:23:33;18.40;99.90
27647;DHT22;42229;51.230;6.240;2023-07-31T01:26:12;18.40;99.90
27647;DHT22;42229;51.230;6.240;2023-07-31T01:28:40;18.40;99.90
27647;DHT22;42229;51.230;6.240;2023-07-31T01:31:16;18.40;99.90
27647;DHT22;42229;51.230;6.240;2023-07-31T01:33:45;18.40;99.90
27647;DHT22;42229;51.230;6.240;2023-07-31T01:36:12;18.40;99.90
27647;DHT22;42229;51.230;6.240;2023-07-31T01:38:39;18.40;99.90
27647;DHT22;42229;51.230;6.240;2023-07-31T01:41:05;18.40;99.90
27647;DHT22;42229;51.230;6.240;2023-07-31T01:43:31;18.40;99.90
27647;DHT22;42229;51.230;6.240;2023-07-31T01:45:58;18.40;99.90
27647;DHT22;42229;51.230;6.240;2023-07-31T01:48:24;18.50;99.90
27647;DHT22;42229;51.230;6.240;2023-07-31T01:50:50;18.50;99.90
27647;DHT22;42229;51.230;6.240;2023-07-31T01:53:16;18.50;99.90
27647;DHT22;42229;51.230;6.240;2023-07-31T01:55:42;18.40;99.90
27647;DHT22;42229;51.230;6.240;2023-07-31T01:58:09;18.40;99.90
27647;DHT22;42229;51.230;6.240;2023-07-31T02:00:35;18.40;99.90
27647;DHT22;42229;51.230;6.240;2023-07-31T02:03:01;18.40;99.90
27647;DHT22;42229;51.230;6.240;2023-07-31T02:05:28;18.40;99.90
27647;DHT22;42229;51.230;6.240;2023-07-31T02:07:54;18.40;99.90
27647;DHT22;42229;51.230;6.240;2023-07-31T02:10:20;18.40;99.90
27647;DHT22;42229;51.230;6.240;2023-07-31T02:12:46;18.40;99.90
27647;DHT22;42229;51.230;6.240;2023-07-31T02:15:13;18.40;99.90
27647;DHT22;42229;51.230;6.240;2023-07-31T02:17:39;18.40;99.90
27647;DHT22;42229;51.230;6.240;2023-07-31T02:20:06;18.50;99.90
27647;DHT22;42229;51.230;6.240;2023-07-31T02:22:33;18.50;99.90
27647;DHT22;42229;51.230;6.240;2023-07-31T02:24:59;18.50;99.90
27647;DHT22;42229;51.230;6.240;2023-07-31T02:27:25;18.50;99.90
27647;DHT22;42229;51.230;6.240;2023-07-31T02:29:53;18.50;99.90
27647;DHT22;42229;51.230;6.240;2023-07-31T02:32:20;18.50;99.90
27647;DHT22;42229;51.230;6.240;2023-07-31T02:34:46;18.50;99.90
27647;DHT22;42229;51.230;6.240;2023-07-31T02:37:13;18.50;99.90
27647;DHT22;42229;51.230;6.240;2023-07-31T02:39:39;18.50;99.90
27647;DHT22;42229;51.230;6.240;2023-07-31T02:42:05;18.60;99.90
27647;DHT22;42229;51.230;6.240;2023-07-31T02:44:31;18.60;99.90
27647;DHT22;42229;51.230;6.240;2023-07-31T02:46:58;18.60;99.90
27647;DHT22;42229;51.230;6.240;2023-07-31T02:49:24;18.60;99.90
27647;DHT22;42229;51.230;6.240;2023-07-31T02:51:50;18.60;99.90
27647;DHT22;42229;51.230;6.240;2023-07-31T02:54:16;18.60;99.90
27647;DHT22;42229;51.230;6.240;2023-07-31T02:56:43;18.60;99.90
27647;DHT22;42229;51.230;6.240;2023-07-31T02:59:09;18.60;99.90
27647;DHT22;42229;51.230;6.240;2023-07-31T03:01:35;18.70;99.90
27647;DHT22;42229;51.230;6.240;2023-07-31T03:04:01;18.60;99.90
27647;DHT22;42229;51.230;6.240;2023-07-31T03:06:27;18.70;99.90
27647;DHT22;42229;51.230;6.240;2023-07-31T03:08:54;18.70;99.90
27647;DHT22;42229;51.230;6.240;2023-07-31T03:11:20;18.80;99.90
27647;DHT22;42229;51.230;6.240;2023-07-31T03:13:46;18.80;99.90
27647;DHT22;42229;51.230;6.240;2023-07-31T03:16:12;18.80;99.90
27647;DHT22;42229;51.230;6.240;2023-07-31T03:18:39;18.90;99.90
27647;DHT22;42229;51.230;6.240;2023-07-31T03:21:05;18.90;99.90
27647;DHT22;42229;51.230;6.240;2023-07-31T03:23:31;18.90;99.90
27647;DHT22;42229;51.230;6.240;2023-07-31T03:25:58;18.90;99.90
27647;DHT22;42229;51.230;6.240;2023-07-31T03:28:28;18.90;99.90
27647;DHT22;42229;51.230;6.240;2023-07-31T03:30:55;18.90;99.90
27647;DHT22;42229;51.230;6.240;2023-07-31T03:33:21;18.90;99.90
27647;DHT22;42229;51.230;6.240;2023-07-31T03:35:47;19.00;99.90
27647;DHT22;42229;51.230;6.240;2023-07-31T03:38:13;19.00;99.90
27647;DHT22;42229;51.230;6.240;2023-07-31T03:40:39;19.00;99.90
27647;DHT22;42229;51.230;6.240;2023-07-31T03:43:06;19.00;99.90
27647;DHT22;42229;51.230;6.240;2023-07-31T03:45:32;19.10;99.90
27647;DHT22;42229;51.230;6.240;2023-07-31T03:47:58;19.00;99.90
27647;DHT22;42229;51.230;6.240;2023-07-31T03:50:25;19.00;99.90
27647;DHT22;42229;51.230;6.240;2023-07-31T03:52:52;19.00;99.90
27647;DHT22;42229;51.230;6.240;2023-07-31T03:55:18;19.00;99.90
27647;DHT22;42229;51.230;6.240;2023-07-31T03:57:44;19.00;99.90
27647;DHT22;42229;51.230;6.240;2023-07-31T04:00:10;19.00;99.90
27647;DHT22;42229;51.230;6.240;2023-07-31T04:02:41;19.00;99.90
27647;DHT22;42229;51.230;6.240;2023-07-31T04:05:07;19.00;99.90
27647;DHT22;42229;51.230;6.240;2023-07-31T04:07:33;19.00;99.90
27647;DHT22;42229;51.230;6.240;2023-07-31T04:10:00;19.00;99.90
27647;DHT22;42229;51.230;6.240;2023-07-31T04:12:26;19.00;99.90
27647;DHT22;42229;51.230;6.240;2023-07-31T04:14:52;19.00;99.90
27647;DHT22;42229;51.230;6.240;2023-07-31T04:17:21;19.00;99.90
27647;DHT22;42229;51.230;6.240;2023-07-31T04:19:48;19.00;99.90
27647;DHT22;42229;51.230;6.240;2023-07-31T04:22:14;19.00;99.90
27647;DHT22;42229;51.230;6.240;2023-07-31T04:24:40;19.10;99.90
27647;DHT22;42229;51.230;6.240;2023-07-31T04:27:06;19.00;99.90
27647;DHT22;42229;51.230;6.240;2023-07-31T04:29:32;19.00;99.90
27647;DHT22;42229;51.230;6.240;2023-07-31T04:31:59;19.00;99.90
27647;DHT22;42229;51.230;6.240;2023-07-31T04:34:26;19.10;99.90
27647;DHT22;42229;51.230;6.240;2023-07-31T04:36:52;19.10;99.90
27647;DHT22;42229;51.230;6.240;2023-07-31T04:39:18;19.10;99.90
27647;DHT22;42229;51.230;6.240;2023-07-31T04:41:44;19.10;99.90
27647;DHT22;42229;51.230;6.240;2023-07-31T04:44:11;19.10;99.90
27647;DHT22;42229;51.230;6.240;2023-07-31T04:46:37;19.20;99.90
27647;DHT22;42229;51.230;6.240;2023-07-31T04:49:03;19.20;99.90
27647;DHT22;42229;51.230;6.240;2023-07-31T04:51:30;19.20;99.90
27647;DHT22;42229;51.230;6.240;2023-07-31T04:53:56;19.20;99.90
27647;DHT22;42229;51.230;6.240;2023-07-31T04:56:22;19.30;99.90
27647;DHT22;42229;51.230;6.240;2023-07-31T04:58:49;19.30;99.90
27647;DHT22;42229;51.230;6.240;2023-07-31T05:01:15;19.30;99.90
27647;DHT22;42229;51.230;6.240;2023-07-31T05:03:41;19.30;99.90
27647;DHT22;42229;51.230;6.240;2023-07-31T05:06:07;19.40;99.90
27647;DHT22;42229;51.230;6.240;2023-07-31T05:08:34;19.40;99.90
27647;DHT22;42229;51.230;6.240;2023-07-31T05:11:01;19.40;99.90
27647;DHT22;42229;51.230;6.240;2023-07-31T05:13:28;19.50;99.90
27647;DHT22;42229;51.230;6.240;2023-07-31T05:15:54;19.40;99.90
27647;DHT22;42229;51.230;6.240;2023-07-31T05:18:20;19.50;99.90
27647;DHT22;42229;51.230;6.240;2023-07-31T05:20:46;19.50;99.90
27647;DHT22;42229;51.230;6.240;2023-07-31T05:23:13;19.50;99.90
27647;DHT22;42229;51.230;6.240;2023-07-31T05:25:39;19.50;99.90
27647;DHT22;42229;51.230;6.240;2023-07-31T05:28:05;19.50;99.90
27647;DHT22;42229;51.230;6.240;2023-07-31T05:30:31;19.60;99.90
27647;DHT22;42229;51.230;6.240;2023-07-31T05:32:58;19.60;99.90
27647;DHT22;42229;51.230;6.240;2023-07-31T05:35:24;19.60;99.90
27647;DHT22;42229;51.230;6.240;2023-07-31T05:37:50;19.60;99.90
27647;DHT22;42229;51.230;6.240;2023-07-31T05:40:16;19.60;99.90
27647;DHT22;42229;51.230;6.240;2023-07-31T05:42:42;19.60;99.90
27647;DHT22;42229;51.230;6.240;2023-07-31T05:45:09;19.60;99.90
27647;DHT22;42229;51.230;6.240;2023-07-31T05:47:35;19.50;99.90
27647;DHT22;42229;51.230;6.240;2023-07-31T05:50:01;19.40;99.90
27647;DHT22;42229;51.230;6.240;2023-07-31T05:52:28;19.30;99.90
27647;DHT22;42229;51.230;6.240;2023-07-31T05:54:54;19.30;99.90
27647;DHT22;42229;51.230;6.240;2023-07-31T05:57:21;19.20;99.90
27647;DHT22;42229;51.230;6.240;2023-07-31T05:59:47;19.10;99.90
27647;DHT22;42229;51.230;6.240;2023-07-31T06:02:13;19.00;99.90
27647;DHT22;42229;51.230;6.240;2023-07-31T06:04:39;19.00;99.90
27647;DHT22;42229;51.230;6.240;2023-07-31T06:07:06;18.90;99.90
27647;DHT22;42229;51.230;6.240;2023-07-31T06:09:32;18.90;99.90
27647;DHT22;42229;51.230;6.240;2023-07-31T06:11:58;18.80;99.90
27647;DHT22;42229;51.230;6.240;2023-07-31T06:14:25;18.80;99.90
27647;DHT22;42229;51.230;6.240;2023-07-31T06:16:51;18.80;99.90
27647;DHT22;42229;51.230;6.240;2023-07-31T06:19:17;18.70;99.90
27647;DHT22;42229;51.230;6.240;2023-07-31T06:21:43;18.70;99.90
27647;DHT22;42229;51.230;6.240;2023-07-31T06:24:10;18.70;99.90
27647;DHT22;42229;51.230;6.240;2023-07-31T06:26:38;18.80;99.90
27647;DHT22;42229;51.230;6.240;2023-07-31T06:29:04;18.70;99.90
27647;DHT22;42229;51.230;6.240;2023-07-31T06:31:30;18.70;99.90
27647;DHT22;42229;51.230;6.240;2023-07-31T06:33:57;18.80;99.90
27647;DHT22;42229;51.230;6.240;2023-07-31T06:36:23;18.80;99.90
27647;DHT22;42229;51.230;6.240;2023-07-31T06:38:50;18.80;99.90
27647;DHT22;42229;51.230;6.240;2023-07-31T06:41:16;18.80;99.90
27647;DHT22;42229;51.230;6.240;2023-07-31T06:43:42;18.80;99.90
27647;DHT22;42229;51.230;6.240;2023-07-31T06:46:09;18.80;99.90
27647;DHT22;42229;51.230;6.240;2023-07-31T06:48:35;18.80;99.90
27647;DHT22;42229;51.230;6.240;2023-07-31T06:51:03;18.80;99.90
27647;DHT22;42229;51.230;6.240;2023-07-31T06:53:29;18.70;99.90
27647;DHT22;42229;51.230;6.240;2023-07-31T06:55:56;18.70;99.90
27647;DHT22;42229;51.230;6.240;2023-07-31T06:58:22;18.60;99.90
27647;DHT22;42229;51.230;6.240;2023-07-31T07:00:48;18.60;99.90
27647;DHT22;42229;51.230;6.240;2023-07-31T07:03:17;18.60;99.90
27647;DHT22;42229;51.230;6.240;2023-07-31T07:05:44;18.50;99.90
27647;DHT22;42229;51.230;6.240;2023-07-31T07:08:10;18.50;99.90
27647;DHT22;42229;51.230;6.240;2023-07-31T07:10:36;18.40;99.90
27647;DHT22;42229;51.230;6.240;2023-07-31T07:13:03;18.40;99.90
27647;DHT22;42229;51.230;6.240;2023-07-31T07:15:29;18.40;99.90
27647;DHT22;42229;51.230;6.240;2023-07-31T07:17:55;18.30;99.90
27647;DHT22;42229;51.230;6.240;2023-07-31T07:20:21;18.30;99.90
27647;DHT22;42229;51.230;6.240;2023-07-31T07:22:48;18.30;99.90
27647;DHT22;42229;51.230;6.240;2023-07-31T07:25:14;18.30;99.90
27647;DHT22;42229;51.230;6.240;2023-07-31T07:27:40;18.20;99.90
27647;DHT22;42229;51.230;6.240;2023-07-31T07:30:07;18.20;99.90
27647;DHT22;42229;51.230;6.240;2023-07-31T07:32:33;18.20;99.90
27647;DHT22;42229;51.230;6.240;2023-07-31T07:34:59;18.10;99.90
27647;DHT22;42229;51.230;6.240;2023-07-31T07:37:26;18.10;99.90
27647;DHT22;42229;51.230;6.240;2023-07-31T07:39:52;18.20;99.90
27647;DHT22;42229;51.230;6.240;2023-07-31T07:42:18;18.10;99.90
27647;DHT22;42229;51.230;6.240;2023-07-31T07:44:45;18.10;99.90
27647;DHT22;42229;51.230;6.240;2023-07-31T07:47:11;18.20;99.90
27647;DHT22;42229;51.230;6.240;2023-07-31T07:49:38;18.10;99.90
27647;DHT22;42229;51.230;6.240;2023-07-31T07:52:05;18.10;99.90
27647;DHT22;42229;51.230;6.240;2023-07-31T07:54:31;18.20;99.90
27647;DHT22;42229;51.230;6.240;2023-07-31T07:56:58;18.20;99.90
27647;DHT22;42229;51.230;6.240;2023-07-31T07:59:24;18.30;99.90
27647;DHT22;42229;51.230;6.240;2023-07-31T08:01:50;18.30;99.90
27647;DHT22;42229;51.230;6.240;2023-07-31T08:04:16;18.30;99.90
27647;DHT22;42229;51.230;6.240;2023-07-31T08:06:43;18.30;99.90
27647;DHT22;42229;51.230;6.240;2023-07-31T08:09:09;18.30;99.90
27647;DHT22;42229;51.230;6.240;2023-07-31T08:11:35;18.30;99.90
27647;DHT22;42229;51.230;6.240;2023-07-31T08:14:01;18.30;99.90
27647;DHT22;42229;51.230;6.240;2023-07-31T08:16:28;18.40;99.90
27647;DHT22;42229;51.230;6.240;2023-07-31T08:18:54;18.40;99.90
27647;DHT22;42229;51.230;6.240;2023-07-31T08:21:21;18.40;99.90
27647;DHT22;42229;51.230;6.240;2023-07-31T08:23:47;18.40;99.90
27647;DHT22;42229;51.230;6.240;2023-07-31T08:26:17;18.50;99.90
27647;DHT22;42229;51.230;6.240;2023-07-31T08:28:44;18.50;99.90
27647;DHT22;42229;51.230;6.240;2023-07-31T08:31:10;18.50;99.90
27647;DHT22;42229;51.230;6.240;2023-07-31T08:33:37;18.60;99.90
27647;DHT22;42229;51.230;6.240;2023-07-31T08:36:04;18.50;99.90
27647;DHT22;42229;51.230;6.240;2023-07-31T08:38:30;18.60;99.90
27647;DHT22;42229;51.230;6.240;2023-07-31T08:40:57;18.60;99.90
27647;DHT22;42229;51.230;6.240;2023-07-31T08:43:27;18.60;99.90
27647;DHT22;42229;51.230;6.240;2023-07-31T08:45:54;18.60;99.90
27647;DHT22;42229;51.230;6.240;2023-07-31T08:48:21;18.60;99.90
27647;DHT22;42229;51.230;6.240;2023-07-31T08:50:49;18.70;99.90
27647;DHT22;42229;51.230;6.240;2023-07-31T08:53:15;18.70;99.90
27647;DHT22;42229;51.230;6.240;2023-07-31T08:55:43;18.70;99.90
27647;DHT22;42229;51.230;6.240;2023-07-31T08:58:10;18.70;99.90
27647;DHT22;42229;51.230;6.240;2023-07-31T09:00:38;18.70;99.90
27647;DHT22;42229;51.230;6.240;2023-07-31T09:03:09;18.70;99.90
27647;DHT22;42229;51.230;6.240;2023-07-31T09:05:36;18.80;99.90
27647;DHT22;42229;51.230;6.240;2023-07-31T09:08:05;18.80;99.90
27647;DHT22;42229;51.230;6.240;2023-07-31T09:10:33;18.80;99.90
27647;DHT22;42229;51.230;6.240;2023-07-31T09:12:59;18.70;99.90
27647;DHT22;42229;51.230;6.240;2023-07-31T09:15:27;18.70;99.90
27647;DHT22;42229;51.230;6.240;2023-07-31T09:18:00;18.70;99.90
27647;DHT22;42229;51.230;6.240;2023-07-31T09:20:26;18.70;99.90
27647;DHT22;42229;51.230;6.240;2023-07-31T09:22:53;18.70;99.90
27647;DHT22;42229;51.230;6.240;2023-07-31T09:25:20;18.70;99.90
27647;DHT22;42229;51.230;6.240;2023-07-31T09:27:48;18.70;99.90
27647;DHT22;42229;51.230;6.240;2023-07-31T09:30:16;18.70;99.90
27647;DHT22;42229;51.230;6.240;2023-07-31T09:32:43;18.70;99.90
27647;DHT22;42229;51.230;6.240;2023-07-31T09:35:29;18.70;99.90
27647;DHT22;42229;51.230;6.240;2023-07-31T09:37:57;18.70;99.90
27647;DHT22;42229;51.230;6.240;2023-07-31T09:40:28;18.70;99.90
27647;DHT22;42229;51.230;6.240;2023-07-31T09:42:56;18.70;99.90
27647;DHT22;42229;51.230;6.240;2023-07-31T09:45:24;18.70;99.90
27647;DHT22;42229;51.230;6.240;2023-07-31T09:47:50;18.70;99.90
27647;DHT22;42229;51.230;6.240;2023-07-31T09:50:17;18.70;99.90
27647;DHT22;42229;51.230;6.240;2023-07-31T09:52:45;18.70;99.90
27647;DHT22;42229;51.230;6.240;2023-07-31T09:55:13;18.70;99.90
27647;DHT22;42229;51.230;6.240;2023-07-31T09:57:40;18.80;99.90
27647;DHT22;42229;51.230;6.240;2023-07-31T10:00:10;18.80;99.90
27647;DHT22;42229;51.230;6.240;2023-07-31T10:02:41;18.90;99.90
27647;DHT22;42229;51.230;6.240;2023-07-31T10:05:07;18.90;99.90
27647;DHT22;42229;51.230;6.240;2023-07-31T10:07:36;19.10;99.90
27647;DHT22;42229;51.230;6.240;2023-07-31T10:10:04;19.10;99.90
27647;DHT22;42229;51.230;6.240;2023-07-31T10:12:31;19.10;99.90
27647;DHT22;42229;51.230;6.240;2023-07-31T10:15:00;19.30;99.90
27647;DHT22;42229;51.230;6.240;2023-07-31T10:17:26;19.30;99.90
27647;DHT22;42229;51.230;6.240;2023-07-31T10:19:55;19.40;99.90
27647;DHT22;42229;51.230;6.240;2023-07-31T10:22:22;19.50;99.90
27647;DHT22;42229;51.230;6.240;2023-07-31T10:24:48;19.60;99.90
27647;DHT22;42229;51.230;6.240;2023-07-31T10:27:16;19.60;99.90
27647;DHT22;42229;51.230;6.240;2023-07-31T10:29:43;19.60;99.90
27647;DHT22;42229;51.230;6.240;2023-07-31T10:32:10;19.70;99.90
27647;DHT22;42229;51.230;6.240;2023-07-31T10:34:38;19.70;99.90
27647;DHT22;42229;51.230;6.240;2023-07-31T10:40:04;19.80;99.90
27647;DHT22;42229;51.230;6.240;2023-07-31T10:42:35;19.80;99.90
27647;DHT22;42229;51.230;6.240;2023-07-31T10:45:06;19.80;99.90
27647;DHT22;42229;51.230;6.240;2023-07-31T10:47:43;19.80;99.90
27647;DHT22;42229;51.230;6.240;2023-07-31T10:50:21;19.80;99.90
27647;DHT22;42229;51.230;6.240;2023-07-31T10:52:51;19.80;99.90
27647;DHT22;42229;51.230;6.240;2023-07-31T10:57:52;19.90;99.90
27647;DHT22;42229;51.230;6.240;2023-07-31T11:02:59;20.00;99.90
27647;DHT22;42229;51.230;6.240;2023-07-31T11:08:18;20.10;99.90
27647;DHT22;42229;51.230;6.240;2023-07-31T11:11:10;20.20;99.90
27647;DHT22;42229;51.230;6.240;2023-07-31T11:13:40;20.20;99.90
27647;DHT22;42229;51.230;6.240;2023-07-31T11:16:08;20.20;99.90
27647;DHT22;42229;51.230;6.240;2023-07-31T11:18:34;20.30;99.90
27647;DHT22;42229;51.230;6.240;2023-07-31T11:21:00;20.30;99.90
27647;DHT22;42229;51.230;6.240;2023-07-31T11:23:27;20.30;99.90
27647;DHT22;42229;51.230;6.240;2023-07-31T11:25:53;20.30;99.90
27647;DHT22;42229;51.230;6.240;2023-07-31T11:28:25;20.40;99.90
27647;DHT22;42229;51.230;6.240;2023-07-31T11:30:51;20.40;99.90
27647;DHT22;42229;51.230;6.240;2023-07-31T11:33:17;20.40;99.90
27647;DHT22;42229;51.230;6.240;2023-07-31T11:35:44;20.50;99.90
27647;DHT22;42229;51.230;6.240;2023-07-31T11:38:12;20.50;99.90
27647;DHT22;42229;51.230;6.240;2023-07-31T11:40:47;20.50;99.90
27647;DHT22;42229;51.230;6.240;2023-07-31T11:43:14;20.50;99.90
27647;DHT22;42229;51.230;6.240;2023-07-31T11:45:55;20.60;99.90
27647;DHT22;42229;51.230;6.240;2023-07-31T11:48:26;20.60;99.90
27647;DHT22;42229;51.230;6.240;2023-07-31T11:50:54;20.60;99.90
27647;DHT22;42229;51.230;6.240;2023-07-31T11:53:33;20.60;99.90
27647;DHT22;42229;51.230;6.240;2023-07-31T11:56:02;20.60;99.90
27647;DHT22;42229;51.230;6.240;2023-07-31T11:58:32;20.60;99.90
27647;DHT22;42229;51.230;6.240;2023-07-31T12:01:00;20.60;99.90
27647;DHT22;42229;51.230;6.240;2023-07-31T12:03:26;20.60;99.90
27647;DHT22;42229;51.230;6.240;2023-07-31T12:05:53;20.60;99.90
27647;DHT22;42229;51.230;6.240;2023-07-31T12:08:23;20.60;99.90
27647;DHT22;42229;51.230;6.240;2023-07-31T12:10:50;20.70;99.90
27647;DHT22;42229;51.230;6.240;2023-07-31T12:13:21;20.70;99.90
27647;DHT22;42229;51.230;6.240;2023-07-31T12:15:48;20.70;99.90
27647;DHT22;42229;51.230;6.240;2023-07-31T12:18:16;20.70;99.90
27647;DHT22;42229;51.230;6.240;2023-07-31T12:20:46;20.70;99.90
27647;DHT22;42229;51.230;6.240;2023-07-31T12:23:14;20.80;99.90
27647;DHT22;42229;51.230;6.240;2023-07-31T12:25:41;20.90;99.90
27647;DHT22;42229;51.230;6.240;2023-07-31T12:28:07;20.80;99.90
27647;DHT22;42229;51.230;6.240;2023-07-31T12:30:38;21.00;99.90
27647;DHT22;42229;51.230;6.240;2023-07-31T12:33:06;21.00;99.90
27647;DHT22;42229;51.230;6.240;2023-07-31T12:35:36;21.00;99.90
27647;DHT22;42229;51.230;6.240;2023-07-31T12:38:04;21.00;99.90
27647;DHT22;42229;51.230;6.240;2023-07-31T12:40:30;21.00;99.90
27647;DHT22;42229;51.230;6.240;2023-07-31T12:42:57;21.10;99.90
27647;DHT22;42229;51.230;6.240;2023-07-31T12:45:23;21.10;99.90
27647;DHT22;42229;51.230;6.240;2023-07-31T12:47:49;21.10;99.90
27647;DHT22;42229;51.230;6.240;2023-07-31T12:50:16;21.10;99.90
27647;DHT22;42229;51.230;6.240;2023-07-31T12:52:42;21.10;99.90
27647;DHT22;42229;51.230;6.240;2023-07-31T12:55:08;21.10;99.90
27647;DHT22;42229;51.230;6.240;2023-07-31T12:57:36;21.10;99.90
27647;DHT22;42229;51.230;6.240;2023-07-31T13:00:03;21.10;99.90
27647;DHT22;42229;51.230;6.240;2023-07-31T13:02:29;21.10;99.90
27647;DHT22;42229;51.230;6.240;2023-07-31T13:04:56;21.20;99.90
27647;DHT22;42229;51.230;6.240;2023-07-31T13:07:22;21.20;99.90
27647;DHT22;42229;51.230;6.240;2023-07-31T13:09:48;21.30;99.90
27647;DHT22;42229;51.230;6.240;2023-07-31T13:12:14;21.40;99.90
27647;DHT22;42229;51.230;6.240;2023-07-31T13:14:43;21.40;99.90
27647;DHT22;42229;51.230;6.240;2023-07-31T13:17:09;21.50;99.90
27647;DHT22;42229;51.230;6.240;2023-07-31T13:26:13;21.70;99.90
27647;DHT22;42229;51.230;6.240;2023-07-31T13:29:56;21.70;99.90
27647;DHT22;42229;51.230;6.240;2023-07-31T13:36:26;21.90;99.90
27647;DHT22;42229;51.230;6.240;2023-07-31T13:40:02;22.00;99.90
27647;DHT22;42229;51.230;6.240;2023-07-31T13:51:59;22.00;99.90
27647;DHT22;42229;51.230;6.240;2023-07-31T13:54:25;22.00;99.90
27647;DHT22;42229;51.230;6.240;2023-07-31T13:56:54;22.00;99.90
27647;DHT22;42229;51.230;6.240;2023-07-31T13:59:20;21.90;99.90
27647;DHT22;42229;51.230;6.240;2023-07-31T14:01:47;21.80;99.90
27647;DHT22;42229;51.230;6.240;2023-07-31T14:04:13;21.80;99.90
27647;DHT22;42229;51.230;6.240;2023-07-31T14:06:40;21.80;99.90
27647;DHT22;42229;51.230;6.240;2023-07-31T14:09:06;21.80;99.90
27647;DHT22;42229;51.230;6.240;2023-07-31T14:11:32;21.80;99.90
27647;DHT22;42229;51.230;6.240;2023-07-31T14:13:59;21.80;99.90
27647;DHT22;42229;51.230;6.240;2023-07-31T14:16:27;21.80;99.90
27647;DHT22;42229;51.230;6.240;2023-07-31T14:18:54;21.80;99.90
27647;DHT22;42229;51.230;6.240;2023-07-31T14:21:20;21.80;99.90
27647;DHT22;42229;51.230;6.240;2023-07-31T14:23:46;21.80;99.90
27647;DHT22;42229;51.230;6.240;2023-07-31T14:26:13;21.80;99.90
27647;DHT22;42229;51.230;6.240;2023-07-31T14:28:39;21.80;99.90
27647;DHT22;42229;51.230;6.240;2023-07-31T14:31:05;21.80;99.90
27647;DHT22;42229;51.230;6.240;2023-07-31T14:33:31;21.70;99.90
27647;DHT22;42229;51.230;6.240;2023-07-31T14:35:58;21.70;99.90
27647;DHT22;42229;51.230;6.240;2023-07-31T14:38:25;21.70;99.90
27647;DHT22;42229;51.230;6.240;2023-07-31T14:40:51;21.70;99.90
27647;DHT22;42229;51.230;6.240;2023-07-31T14:43:17;21.70;99.90
27647;DHT22;42229;51.230;6.240;2023-07-31T14:45:43;21.70;99.90
27647;DHT22;42229;51.230;6.240;2023-07-31T14:48:12;21.70;99.90
27647;DHT22;42229;51.230;6.240;2023-07-31T14:50:38;21.70;99.90
27647;DHT22;42229;51.230;6.240;2023-07-31T14:53:04;21.70;99.90
27647;DHT22;42229;51.230;6.240;2023-07-31T14:55:31;21.80;99.90
27647;DHT22;42229;51.230;6.240;2023-07-31T14:57:57;21.80;99.90
27647;DHT22;42229;51.230;6.240;2023-07-31T15:00:23;21.80;99.90
27647;DHT22;42229;51.230;6.240;2023-07-31T15:02:50;21.80;99.90
27647;DHT22;42229;51.230;6.240;2023-07-31T15:05:16;21.80;99.90
27647;DHT22;42229;51.230;6.240;2023-07-31T15:07:42;21.80;99.90
27647;DHT22;42229;51.230;6.240;2023-07-31T15:10:09;21.80;99.90
27647;DHT22;42229;51.230;6.240;2023-07-31T15:12:35;21.70;99.90
27647;DHT22;42229;51.230;6.240;2023-07-31T15:15:04;21.60;99.90
27647;DHT22;42229;51.230;6.240;2023-07-31T15:17:30;21.60;99.90
27647;DHT22;42229;51.230;6.240;2023-07-31T15:19:57;21.40;99.90
27647;DHT22;42229;51.230;6.240;2023-07-31T15:22:23;21.30;99.90
27647;DHT22;42229;51.230;6.240;2023-07-31T15:24:50;21.10;99.90
27647;DHT22;42229;51.230;6.240;2023-07-31T15:27:16;20.90;99.90
27647;DHT22;42229;51.230;6.240;2023-07-31T15:29:43;20.80;99.90
27647;DHT22;42229;51.230;6.240;2023-07-31T15:32:09;20.70;99.90
27647;DHT22;42229;51.230;6.240;2023-07-31T15:34:35;20.50;99.90
27647;DHT22;42229;51.230;6.240;2023-07-31T15:37:01;20.40;99.90
27647;DHT22;42229;51.230;6.240;2023-07-31T15:39:28;20.40;99.90
27647;DHT22;42229;51.230;6.240;2023-07-31T15:41:54;20.30;99.90
27647;DHT22;42229;51.230;6.240;2023-07-31T15:44:21;20.20;99.90
27647;DHT22;42229;51.230;6.240;2023-07-31T15:46:47;20.10;99.90
27647;DHT22;42229;51.230;6.240;2023-07-31T15:49:13;20.10;99.90
27647;DHT22;42229;51.230;6.240;2023-07-31T15:51:40;20.20;99.90
27647;DHT22;42229;51.230;6.240;2023-07-31T15:54:06;20.10;99.90
27647;DHT22;42229;51.230;6.240;2023-07-31T15:56:32;20.10;99.90
27647;DHT22;42229;51.230;6.240;2023-07-31T15:58:58;20.10;99.90
27647;DHT22;42229;51.230;6.240;2023-07-31T16:01:26;20.10;99.90
27647;DHT22;42229;51.230;6.240;2023-07-31T16:03:52;20.10;99.90
27647;DHT22;42229;51.230;6.240;2023-07-31T16:06:19;20.10;99.90